Time,TemperatureF,DewpointF,PressureIn,WindDirection,WindDirectionDegrees,WindSpeedMPH,WindSpeedGustMPH,Humidity,HourlyPrecipIn,Conditions,Clouds,dailyrainin,SoftwareType,DateUTC
2014-01-22 00:01:00,11.8,7.4,28.63,SSW,202,2.2,-999.0,82,-99.99,,,0.00,Acu-Link.com,2014-01-22 05:01:00,
2014-01-22 00:16:00,12.2,6.7,28.63,WSW,247,5.3,-999.0,78,-99.99,,,0.00,Acu-Link.com,2014-01-22 05:16:00,
2014-01-22 00:34:00,12.2,5.8,28.63,NNW,337,3.2,-999.0,75,-99.99,,,0.00,Acu-Link.com,2014-01-22 05:34:00,
2014-01-22 00:49:00,11.8,4.8,28.61,East,90,5.3,-999.0,73,-99.99,,,0.00,Acu-Link.com,2014-01-22 05:49:00,
2014-01-22 01:04:00,11.8,4.5,28.61,SW,225,5.3,-999.0,72,-99.99,,,0.00,Acu-Link.com,2014-01-22 06:04:00,
2014-01-22 01:19:00,12.0,4.4,28.61,West,270,5.3,-999.0,71,-99.99,,,0.00,Acu-Link.com,2014-01-22 06:19:00,
2014-01-22 01:35:00,11.7,3.5,28.62,South,180,3.7,-999.0,69,-99.99,,,0.00,Acu-Link.com,2014-01-22 06:35:00,
2014-01-22 01:50:00,11.5,3.6,28.62,SE,135,3.7,-999.0,70,-99.99,,,0.00,Acu-Link.com,2014-01-22 06:50:00,
2014-01-22 12:55:00,12.9,0.6,28.61,West,270,6.8,-999.0,57,-99.99,,,0.00,Acu-Link.com,2014-01-22 17:55:00,
2014-01-22 13:10:00,13.3,0.6,28.61,WSW,247,6.3,-999.0,56,-99.99,,,0.00,Acu-Link.com,2014-01-22 18:10:00,
2014-01-22 13:25:00,14.0,1.2,28.62,WSW,247,1.7,-999.0,56,-99.99,,,0.00,Acu-Link.com,2014-01-22 18:25:00,
2014-01-22 13:40:00,14.5,1.7,28.63,West,270,6.3,-999.0,56,-99.99,,,0.00,Acu-Link.com,2014-01-22 18:40:00,
2014-01-22 13:56:00,14.4,0.0,28.63,West,270,5.8,-999.0,52,-99.99,,,0.00,Acu-Link.com,2014-01-22 18:56:00,
2014-01-22 14:11:00,14.7,0.3,28.63,West,270,6.8,-999.0,52,-99.99,,,0.00,Acu-Link.com,2014-01-22 19:11:00,
2014-01-22 14:26:00,14.9,-0.3,28.63,West,270,4.2,-999.0,50,-99.99,,,0.00,Acu-Link.com,2014-01-22 19:26:00,
2014-01-22 14:41:00,15.4,0.1,28.63,West,270,5.8,-999.0,50,-99.99,,,0.00,Acu-Link.com,2014-01-22 19:41:00,
2014-01-22 14:56:00,15.8,0.9,28.63,SW,225,5.8,-999.0,51,-99.99,,,0.00,Acu-Link.com,2014-01-22 19:56:00,
2014-01-22 15:11:00,16.9,2.4,28.63,NNW,337,2.7,-999.0,52,-99.99,,,0.00,Acu-Link.com,2014-01-22 20:11:00,
2014-01-22 15:26:00,17.1,3.0,28.64,SE,135,6.3,-999.0,53,-99.99,,,0.00,Acu-Link.com,2014-01-22 20:26:00,
2014-01-22 15:42:00,16.9,1.9,28.65,West,270,2.2,-999.0,51,-99.99,,,0.00,Acu-Link.com,2014-01-22 20:42:00,
2014-01-22 15:57:00,16.7,0.9,28.65,West,270,6.3,-999.0,49,-99.99,,,0.00,Acu-Link.com,2014-01-22 20:57:00,
2014-01-22 16:12:00,17.2,3.0,28.65,West,270,2.2,-999.0,53,-99.99,,,0.00,Acu-Link.com,2014-01-22 21:12:00,
2014-01-22 16:27:00,16.5,1.1,28.66,West,270,7.8,-999.0,50,-99.99,,,0.00,Acu-Link.com,2014-01-22 21:27:00,
2014-01-22 16:43:00,16.2,0.4,28.67,West,270,6.8,-999.0,49,-99.99,,,0.00,Acu-Link.com,2014-01-22 21:43:00,
2014-01-22 16:58:00,16.2,1.3,28.68,West,270,4.7,-999.0,51,-99.99,,,0.00,Acu-Link.com,2014-01-22 21:58:00,
2014-01-22 17:13:00,15.8,1.3,28.69,WSW,247,5.3,-999.0,52,-99.99,,,0.00,Acu-Link.com,2014-01-22 22:13:00,
2014-01-22 17:28:00,15.6,1.6,28.69,West,270,6.3,-999.0,53,-99.99,,,0.00,Acu-Link.com,2014-01-22 22:28:00,
2014-01-22 17:44:00,15.6,1.6,28.70,WSW,247,7.3,-999.0,53,-99.99,,,0.00,Acu-Link.com,2014-01-22 22:44:00,
2014-01-22 17:59:00,15.3,1.3,28.71,West,270,6.3,-999.0,53,-99.99,,,0.00,Acu-Link.com,2014-01-22 22:59:00,
2014-01-22 18:14:00,14.7,-0.1,28.72,West,270,7.3,-999.0,51,-99.99,,,0.00,Acu-Link.com,2014-01-22 23:14:00,
2014-01-22 18:29:00,15.1,1.9,28.72,South,180,4.7,-999.0,55,-99.99,,,0.00,Acu-Link.com,2014-01-22 23:29:00,
2014-01-22 18:44:00,14.9,0.9,28.72,WSW,247,3.7,-999.0,53,-99.99,,,0.00,Acu-Link.com,2014-01-22 23:44:00,
2014-01-22 19:15:00,14.4,1.2,28.73,NW,315,4.2,-999.0,55,-99.99,,,0.00,Acu-Link.com,2014-01-23 00:15:00,
2014-01-22 19:30:00,13.8,1.0,28.74,West,270,2.2,-999.0,56,-99.99,,,0.00,Acu-Link.com,2014-01-23 00:30:00,
2014-01-22 19:45:00,13.3,0.2,28.75,SW,225,1.7,-999.0,55,-99.99,,,0.00,Acu-Link.com,2014-01-23 00:45:00,
2014-01-22 21:32:00,10.6,-1.6,28.78,WNW,292,5.8,-999.0,57,-99.99,,,0.00,Acu-Link.com,2014-01-23 02:32:00,
2014-01-22 21:47:00,10.2,-2.0,28.79,West,270,5.8,-999.0,57,-99.99,,,0.00,Acu-Link.com,2014-01-23 02:47:00,
2014-01-22 22:18:00,9.9,-1.9,28.79,West,270,4.7,-999.0,58,-99.99,,,0.00,Acu-Link.com,2014-01-23 03:18:00,
2014-01-22 22:34:00,10.2,-0.9,28.80,ESE,112,0.0,-999.0,60,-99.99,,,0.00,Acu-Link.com,2014-01-23 03:34:00,
2014-01-22 22:49:00,9.5,-1.9,28.80,West,270,3.7,-999.0,59,-99.99,,,0.00,Acu-Link.com,2014-01-23 03:49:00,
2014-01-22 23:04:00,9.3,-1.7,28.80,WSW,247,5.3,-999.0,60,-99.99,,,0.00,Acu-Link.com,2014-01-23 04:04:00,
2014-01-22 23:19:00,8.8,-1.9,28.80,West,270,3.7,-999.0,61,-99.99,,,0.00,Acu-Link.com,2014-01-23 04:19:00,
2014-01-22 23:35:00,8.6,-1.7,28.81,West,270,4.2,-999.0,62,-99.99,,,0.00,Acu-Link.com,2014-01-23 04:35:00,
2014-01-22 23:50:00,9.0,-1.3,28.81,WSW,247,4.2,-999.0,62,-99.99,,,0.00,Acu-Link.com,2014-01-23 04:50:00,